Albert, New Mexico
Current Conditions -  °F | °C
As of 5:53 PM on Wednesday 17 Dec 2014 (Local Time) from KTCC Reporting Station
Clear Clear  
Wind Chill: 40°   Ceiling: Unl
Heat Index: 46°   Visibility: 10mi
Dew Point: 30°   Wind: 13mph
Humidity: 54%   Direction: 230°SW
Pressure: 29.9"   Gusts: NA
Location:  35.7181°N, 103.591°W
Report Text: KTCC 180053Z AUTO 23011KT 10SM CLR 08/M01 A2990 RMK AO2 SLP121 T00781011
Loading
Personal Weather Stations






























Interactive Weather Map New forecast layout! Learn more

10-Day Weather Forecast

Advertisements
Track Severe Weather on mobile